Time;durP1;ratioP1;P1;durP2;ratioP2;P2;SDS_P1;SDS_P2;PMS_P1;PMS_P2;Temp;Humidity;BMP_temperature;BMP_pressure;BME280_temperature;BME280_humidity;BME280_pressure;Samples;Min_cycle;Max_cycle;Signal;HPM_P1;HPM_P2
2021/03/09 00:01:43;;;;;;;5.12;2.40;;;;;;;-0.93;54.59;99419.28;1841525;77;21633;-39
2021/03/09 00:04:11;;;;;;;4.00;2.00;;;;;;;-0.93;54.45;99419.28;1839455;76;21135;-39
2021/03/09 00:06:41;;;;;;;3.12;1.98;;;;;;;-0.92;54.45;99418.98;1834210;76;21025;-39
2021/03/09 00:09:10;;;;;;;3.72;1.92;;;;;;;-0.91;54.55;99415.25;1763217;81;21123;-39
2021/03/09 00:11:38;;;;;;;5.17;2.35;;;;;;;-0.88;54.38;99412.58;1834424;78;21263;-39
2021/03/09 00:14:07;;;;;;;4.80;1.98;;;;;;;-0.93;54.35;99418.75;1763240;81;21202;-39
2021/03/09 00:16:35;;;;;;;4.90;2.12;;;;;;;-0.95;54.36;99420.88;1834101;78;21174;-39
2021/03/09 00:19:03;;;;;;;5.55;2.45;;;;;;;-0.98;54.37;99418.80;1763170;81;21086;-39
2021/03/09 00:21:31;;;;;;;3.42;2.45;;;;;;;-1.00;54.24;99415.61;1834507;78;21135;-39
2021/03/09 00:23:59;;;;;;;5.62;2.15;;;;;;;-1.07;54.36;99419.69;1763161;81;21362;-39
2021/03/09 00:26:28;;;;;;;3.33;1.98;;;;;;;-1.13;54.30;99420.28;1832466;78;21119;-39
2021/03/09 00:28:56;;;;;;;3.77;2.20;;;;;;;-1.13;54.66;99423.47;1741263;81;21103;-39
2021/03/09 00:31:25;;;;;;;2.45;1.60;;;;;;;-1.16;54.71;99419.48;1759973;81;21171;-39
2021/03/09 00:33:53;;;;;;;2.90;1.90;;;;;;;-1.18;54.13;99411.02;1737901;82;21175;-39
2021/03/09 00:36:21;;;;;;;3.77;1.90;;;;;;;-1.23;54.27;99415.58;1756464;81;21220;-38
2021/03/09 00:38:49;;;;;;;2.05;1.60;;;;;;;-1.25;54.26;99417.72;1773667;78;21127;-39
2021/03/09 00:41:17;;;;;;;3.37;1.67;;;;;;;-1.23;54.20;99414.25;1742950;82;21143;-39
2021/03/09 00:43:46;;;;;;;2.72;1.75;;;;;;;-1.26;54.66;99412.96;1766567;81;21137;-39
2021/03/09 00:46:14;;;;;;;3.17;1.70;;;;;;;-1.23;54.32;99419.04;1766706;81;21190;-39
2021/03/09 00:48:42;;;;;;;4.12;1.75;;;;;;;-1.20;54.40;99417.67;1761632;80;21405;-39
2021/03/09 00:51:11;;;;;;;4.60;1.82;;;;;;;-1.17;53.77;99414.47;1759871;81;21167;-39
2021/03/09 00:53:39;;;;;;;4.62;1.77;;;;;;;-1.15;53.37;99413.63;1759902;81;21143;-39
2021/03/09 00:56:08;;;;;;;3.42;1.52;;;;;;;-1.16;53.18;99416.06;1759835;80;21108;-39
2021/03/09 00:58:37;;;;;;;2.58;1.90;;;;;;;-1.17;52.95;99418.45;1777738;80;21163;-39
2021/03/09 01:01:06;;;;;;;2.95;1.60;;;;;;;-1.22;53.09;99417.97;1768801;81;21466;-39
2021/03/09 01:03:34;;;;;;;3.45;1.80;;;;;;;-1.24;52.65;99410.80;1830403;78;21111;-39
2021/03/09 01:06:02;;;;;;;4.47;1.60;;;;;;;-1.30;52.55;99417.23;1830658;78;21151;-39
2021/03/09 01:08:31;;;;;;;2.52;1.42;;;;;;;-1.28;52.49;99414.30;1830627;78;21039;-39
2021/03/09 01:10:59;;;;;;;3.72;1.82;;;;;;;-1.26;52.43;99413.50;1830575;78;21183;-39
2021/03/09 01:13:28;;;;;;;2.83;1.52;;;;;;;-1.28;51.92;99414.30;1830576;78;21343;-39
2021/03/09 01:15:56;;;;;;;2.42;1.52;;;;;;;-1.28;52.03;99421.74;1830410;77;21201;-39
2021/03/09 01:18:25;;;;;;;3.77;2.43;;;;;;;-1.26;51.85;99419.61;1825549;77;21565;-39
2021/03/09 01:20:54;;;;;;;2.00;1.40;;;;;;;-1.23;51.01;99422.23;1830454;78;21119;-39
2021/03/09 01:23:22;;;;;;;2.72;1.60;;;;;;;-1.22;50.72;99424.63;1830720;78;21123;-39
2021/03/09 01:25:50;;;;;;;2.17;1.42;;;;;;;-1.15;50.47;99422.95;1833185;77;21176;-39
2021/03/09 01:28:19;;;;;;;1.65;1.40;;;;;;;-1.14;50.44;99429.33;1864341;76;21143;-39
2021/03/09 01:30:47;;;;;;;4.28;1.50;;;;;;;-1.17;50.53;99426.44;1770315;79;21032;-39
2021/03/09 01:33:15;;;;;;;2.45;1.55;;;;;;;-1.21;50.75;99417.44;1773409;80;21169;-39
2021/03/09 01:35:44;;;;;;;2.60;1.42;;;;;;;-1.18;50.66;99425.64;1775807;80;21437;-39
2021/03/09 01:38:12;;;;;;;3.15;1.57;;;;;;;-1.20;50.75;99425.12;1814128;77;22261;-39
2021/03/09 01:40:40;;;;;;;2.00;1.35;;;;;;;-1.18;50.88;99416.33;1837842;77;21628;-39
2021/03/09 01:43:08;;;;;;;2.90;1.70;;;;;;;-1.14;50.74;99422.67;1847317;77;21092;-39
2021/03/09 01:45:36;;;;;;;2.50;1.70;;;;;;;-1.14;50.58;99421.87;1847261;77;21200;-39
2021/03/09 01:48:07;;;;;;;2.83;1.80;;;;;;;-1.23;50.86;99427.02;1847245;77;21150;-39
2021/03/09 01:50:37;;;;;;;2.70;1.67;;;;;;;-1.23;51.05;99423.56;1847529;77;22253;-39
2021/03/09 01:53:06;;;;;;;2.65;1.70;;;;;;;-1.23;51.32;99423.56;1847329;77;21592;-39
2021/03/09 01:55:35;;;;;;;2.27;1.80;;;;;;;-1.19;51.25;99425.91;1847300;77;20987;-39
2021/03/09 01:58:07;;;;;;;1.92;1.52;;;;;;;-1.11;51.09;99433.27;1847404;77;21051;-39
2021/03/09 02:00:35;;;;;;;2.08;1.25;;;;;;;-1.08;50.49;99427.41;1824143;77;21178;-39
2021/03/09 02:03:05;;;;;;;3.08;1.80;;;;;;;-1.11;50.42;99427.95;1847186;77;21296;-39
2021/03/09 02:05:33;;;;;;;4.03;1.87;;;;;;;-1.17;50.40;99427.77;1847420;77;21039;-39
2021/03/09 02:08:01;;;;;;;2.35;1.62;;;;;;;-1.22;50.70;99426.48;1847177;77;21121;-39
2021/03/09 02:10:30;;;;;;;2.58;1.32;;;;;;;-1.27;50.67;99428.66;1847256;77;21581;-39
2021/03/09 02:13:25;;;;;;;2.50;1.40;;;;;;;-1.28;50.79;99440.36;1844101;76;21131;-39
2021/03/09 02:16:16;;;;;;;1.90;1.20;;;;;;;-1.32;50.89;99440.13;1833487;78;21365;-39
2021/03/09 02:19:43;;;;;;;1.75;1.10;;;;;;;-1.37;50.91;99444.70;1831199;78;21198;-39
2021/03/09 02:22:56;;;;;;;3.70;1.55;;;;;;;-1.35;50.86;99445.20;1833947;78;21604;-40
2021/03/09 02:25:49;;;;;;;2.45;1.30;;;;;;;-1.38;50.96;99459.86;1793435;79;21107;-39
2021/03/09 02:28:47;;;;;;;3.10;1.32;;;;;;;-1.34;51.13;99466.73;1846934;77;21087;-40
2021/03/09 02:31:16;;;;;;;3.35;1.67;;;;;;;-1.29;51.47;99465.36;1847319;77;22447;-40
2021/03/09 02:33:53;;;;;;;2.45;1.45;;;;;;;-1.19;51.58;99469.80;1847263;77;21104;-40
2021/03/09 02:36:23;;;;;;;1.72;1.40;;;;;;;-1.14;51.43;99474.55;1847216;77;21004;-40
2021/03/09 02:39:07;;;;;;;3.72;1.55;;;;;;;-1.11;51.58;99474.51;1847223;77;21117;-40
2021/03/09 02:41:45;;;;;;;2.12;1.50;;;;;;;-1.14;51.51;99473.22;1847277;77;21154;-40
2021/03/09 02:44:24;;;;;;;3.65;1.90;;;;;;;-1.18;51.97;99480.70;1847176;77;21697;-40
2021/03/09 02:46:52;;;;;;;3.85;1.72;;;;;;;-1.17;52.01;99478.31;1847285;77;21102;-40
2021/03/09 02:49:22;;;;;;;3.37;1.70;;;;;;;-1.14;52.44;99476.41;1816105;77;21142;-40
2021/03/09 02:51:50;;;;;;;4.83;1.85;;;;;;;-1.09;52.43;99467.85;1813876;79;21181;-40
2021/03/09 02:54:19;;;;;;;3.62;1.98;;;;;;;-0.99;52.37;99464.30;1814081;78;21114;-40
2021/03/09 02:56:47;;;;;;;3.00;1.60;;;;;;;-0.92;52.21;99470.10;1813979;79;21146;-40
2021/03/09 02:59:17;;;;;;;2.30;1.40;;;;;;;-0.84;51.94;99464.16;1841569;77;21183;-40
2021/03/09 03:01:48;;;;;;;2.60;1.57;;;;;;;-0.81;51.79;99462.25;1824200;77;21150;-40
2021/03/09 03:04:18;;;;;;;1.52;1.32;;;;;;;-0.84;51.32;99472.14;1847416;77;21612;-40
2021/03/09 03:06:46;;;;;;;2.20;1.42;;;;;;;-0.90;51.18;99478.58;1847340;77;21146;-40
2021/03/09 03:09:19;;;;;;;2.98;1.72;;;;;;;-0.95;51.52;99470.11;1847605;77;21186;-40
2021/03/09 03:11:48;;;;;;;2.37;1.60;;;;;;;-0.98;50.99;99477.87;1847248;77;21016;-40
2021/03/09 03:14:17;;;;;;;2.15;1.30;;;;;;;-1.04;51.72;99480.31;1847265;77;21127;-40
2021/03/09 03:16:46;;;;;;;1.92;1.45;;;;;;;-1.02;51.71;99480.84;1824382;77;21126;-40
2021/03/09 03:19:15;;;;;;;2.15;1.50;;;;;;;-0.99;51.33;99490.37;1847303;77;21174;-40
2021/03/09 03:21:43;;;;;;;2.15;1.47;;;;;;;-0.98;51.75;99487.18;1847261;77;21184;-40
2021/03/09 03:24:11;;;;;;;2.35;1.55;;;;;;;-0.92;51.51;99491.39;1847077;77;21214;-40
2021/03/09 03:26:42;;;;;;;2.47;1.32;;;;;;;-0.88;51.56;99493.74;1847298;77;21095;-40
2021/03/09 03:29:10;;;;;;;3.40;1.40;;;;;;;-0.89;51.24;99496.14;1847372;77;22262;-40
2021/03/09 03:31:39;;;;;;;1.82;1.50;;;;;;;-0.97;51.12;99500.75;1847322;77;21393;-40
2021/03/09 03:34:07;;;;;;;2.45;1.40;;;;;;;-0.99;51.28;99501.02;1847223;77;21466;-40
2021/03/09 03:36:35;;;;;;;2.05;1.57;;;;;;;-1.02;51.24;99502.12;1847247;77;21118;-40
2021/03/09 03:39:05;;;;;;;2.45;1.60;;;;;;;-1.08;50.74;99500.05;1813966;79;21118;-40
2021/03/09 03:41:34;;;;;;;1.60;1.20;;;;;;;-1.12;51.10;99514.18;1814163;79;21138;-40
2021/03/09 03:44:03;;;;;;;5.12;1.27;;;;;;;-1.17;51.56;99511.56;1814026;78;21581;-40
2021/03/09 03:46:32;;;;;;;2.33;1.52;;;;;;;-1.17;51.91;99512.89;1814315;79;22120;-40
2021/03/09 03:49:00;;;;;;;2.45;1.67;;;;;;;-1.15;52.37;99516.84;1847041;77;20972;-40
2021/03/09 03:51:32;;;;;;;1.70;1.40;;;;;;;-1.09;52.74;99520.27;1847260;77;21138;-39
2021/03/09 03:54:31;;;;;;;2.50;1.70;;;;;;;-1.09;53.05;99515.73;1847298;77;21596;-39
2021/03/09 03:57:19;;;;;;;1.52;1.40;;;;;;;-1.05;52.99;99526.08;1847182;77;21150;-40
2021/03/09 03:59:52;;;;;;;3.80;1.35;;;;;;;-1.06;53.19;99525.81;1785509;79;21150;-40
2021/03/09 04:02:20;;;;;;;3.00;1.60;;;;;;;-1.01;53.16;99529.77;1814236;79;20972;-40
2021/03/09 04:04:49;;;;;;;3.47;1.47;;;;;;;-0.93;53.20;99528.38;1808886;78;21552;-40
2021/03/09 04:07:23;;;;;;;1.40;1.30;;;;;;;-0.87;53.27;99528.04;1792221;79;21150;-40
2021/03/09 04:09:53;;;;;;;2.00;1.50;;;;;;;-0.79;53.16;99523.20;1813942;79;21130;-40
2021/03/09 04:12:25;;;;;;;2.60;1.60;;;;;;;-0.82;53.13;99528.53;1814046;79;21365;-40
2021/03/09 04:14:57;;;;;;;2.85;1.50;;;;;;;-0.84;53.25;99528.03;1813860;79;21166;-40
2021/03/09 04:17:27;;;;;;;2.12;1.30;;;;;;;-0.85;53.57;99534.42;1813980;79;21147;-40
2021/03/09 04:19:55;;;;;;;2.15;1.37;;;;;;;-0.84;53.65;99537.34;1814005;79;21185;-40
2021/03/09 04:22:24;;;;;;;1.95;1.52;;;;;;;-0.87;53.88;99539.22;1813977;79;21114;-40
2021/03/09 04:24:53;;;;;;;3.22;1.77;;;;;;;-0.87;54.32;99539.22;1813810;79;21421;-40
2021/03/09 04:27:21;;;;;;;2.25;1.60;;;;;;;-0.84;54.78;99545.86;1843631;77;21158;-40
2021/03/09 04:29:54;;;;;;;2.17;1.60;;;;;;;-0.82;55.27;99541.07;1840880;77;21028;-40
2021/03/09 04:32:24;;;;;;;3.70;1.82;;;;;;;-0.80;55.43;99539.70;1830376;78;21142;-40
2021/03/09 04:34:54;;;;;;;2.58;1.60;;;;;;;-0.71;55.64;99550.53;1830568;78;21127;-40
2021/03/09 04:37:24;;;;;;;2.75;1.62;;;;;;;-0.69;55.69;99546.53;1823618;78;21450;-40
2021/03/09 04:41:37;;;;;;;2.58;1.80;;;;;;;-0.66;55.62;99543.30;1808616;78;22512;-39
2021/03/09 04:44:06;;;;;;;4.05;1.95;;;;;;;-0.75;55.91;99550.30;1784052;80;20979;-39
2021/03/09 04:46:34;;;;;;;2.45;1.80;;;;;;;-0.76;56.15;99554.03;1784023;80;21347;-39
2021/03/09 04:49:04;;;;;;;3.35;1.80;;;;;;;-0.77;56.40;99555.63;1783896;80;21050;-39
2021/03/09 04:51:36;;;;;;;2.37;1.70;;;;;;;-0.70;56.56;99560.11;1752576;80;20987;-39
2021/03/09 04:54:05;;;;;;;2.40;1.60;;;;;;;-0.62;56.72;99560.83;1783981;80;20951;-39
2021/03/09 04:56:35;;;;;;;2.75;1.60;;;;;;;-0.51;56.60;99564.98;1784124;80;21644;-39
2021/03/09 04:59:06;;;;;;;3.45;1.72;;;;;;;-0.44;56.59;99558.23;1808069;79;21275;-39
2021/03/09 05:01:34;;;;;;;2.55;1.92;;;;;;;-0.35;56.29;99558.98;1816196;79;20991;-39
2021/03/09 05:04:05;;;;;;;2.83;1.72;;;;;;;-0.27;56.20;99563.67;1816176;79;21584;-39
2021/03/09 05:06:32;;;;;;;1.75;1.37;;;;;;;-0.25;56.13;99564.99;1816273;79;21158;-39
2021/03/09 05:09:01;;;;;;;3.98;1.75;;;;;;;-0.23;56.16;99568.69;1816045;78;21146;-39
2021/03/09 05:11:31;;;;;;;3.37;1.60;;;;;;;-0.22;55.99;99575.61;1816311;79;21204;-40
2021/03/09 05:13:59;;;;;;;2.72;1.72;;;;;;;-0.21;55.93;99568.67;1815946;79;21186;-39
2021/03/09 05:16:27;;;;;;;2.87;1.47;;;;;;;-0.17;55.78;99572.36;1816151;79;21130;-39
2021/03/09 05:18:55;;;;;;;1.98;1.50;;;;;;;-0.15;55.67;99583.53;1816161;79;21174;-39
2021/03/09 05:21:24;;;;;;;2.83;1.57;;;;;;;-0.14;55.57;99588.30;1816138;79;21534;-39
2021/03/09 05:23:52;;;;;;;2.52;1.50;;;;;;;-0.16;55.47;99593.94;1816127;79;21360;-39
2021/03/09 05:26:22;;;;;;;;;;;;;;;-0.16;55.52;99596.59;1818840;78;21464;-39
2021/03/09 05:28:50;;;;;;;2.90;1.60;;;;;;;-0.11;55.56;99598.41;1806148;79;20241;-39
2021/03/09 05:31:19;;;;;;;3.08;1.65;;;;;;;-0.14;55.64;99604.28;1793753;79;21377;-39
2021/03/09 05:33:47;;;;;;;4.95;1.52;;;;;;;-0.13;55.41;99609.88;1816131;79;21146;-39
2021/03/09 05:36:18;;;;;;;2.65;1.62;;;;;;;-0.14;55.39;99617.08;1816240;79;20984;-39
2021/03/09 05:38:48;;;;;;;2.75;1.57;;;;;;;-0.16;55.37;99618.45;1713009;80;21605;-39
2021/03/09 05:41:17;;;;;;;3.20;1.82;;;;;;;-0.15;55.33;99622.70;1748949;82;21182;-39
2021/03/09 05:43:45;;;;;;;4.50;2.50;;;;;;;-0.15;55.80;99629.38;1749113;82;21186;-39
2021/03/09 05:46:13;;;;;;;4.90;2.83;;;;;;;-0.12;56.17;99630.13;1749221;81;21186;-39
2021/03/09 05:48:42;;;;;;;4.50;2.40;;;;;;;-0.11;56.88;99633.05;1749128;82;21387;-39
2021/03/09 05:51:10;;;;;;;3.12;2.65;;;;;;;-0.14;57.49;99642.92;1749006;81;21032;-39
2021/03/09 05:53:38;;;;;;;3.02;2.65;;;;;;;-0.22;57.94;99645.67;1748717;81;21112;-39
2021/03/09 05:56:08;;;;;;;4.40;2.77;;;;;;;-0.28;57.91;99645.99;1748807;81;21213;-39
2021/03/09 05:58:37;;;;;;;5.67;2.17;;;;;;;-0.43;57.46;99649.59;1740404;82;21162;-39
2021/03/09 06:01:05;;;;;;;4.53;2.60;;;;;;;-0.49;57.15;99654.72;1716952;83;21440;-39
2021/03/09 06:03:33;;;;;;;3.37;2.30;;;;;;;-0.52;57.18;99663.25;1715461;83;21207;-39
2021/03/09 06:06:02;;;;;;;3.27;2.10;;;;;;;-0.51;56.81;99666.98;1725550;83;21150;-39
2021/03/09 06:08:30;;;;;;;2.72;1.80;;;;;;;-0.58;56.39;99673.14;1784051;80;20983;-39
2021/03/09 06:11:18;;;;;;;3.00;1.80;;;;;;;-0.62;56.18;99671.31;1783879;80;21711;-39
2021/03/09 06:13:47;;;;;;;3.40;1.98;;;;;;;-0.70;56.17;99680.70;1784052;80;21351;-39
2021/03/09 06:16:15;;;;;;;2.72;2.00;;;;;;;-0.73;56.59;99685.27;1779745;79;21159;-39
2021/03/09 06:18:56;;;;;;;2.40;1.72;;;;;;;-0.68;56.69;99689.75;1769168;79;21019;-39
2021/03/09 06:21:25;;;;;;;2.85;2.05;;;;;;;-0.68;56.63;99691.09;1781060;79;21127;-39
2021/03/09 06:23:54;;;;;;;2.50;1.75;;;;;;;-0.74;56.75;99700.97;1718809;83;21147;-39
2021/03/09 06:26:39;;;;;;;2.08;1.70;;;;;;;-0.79;56.78;99703.66;1797326;79;21380;-39
2021/03/09 06:29:16;;;;;;;2.98;2.00;;;;;;;-0.79;56.78;99703.66;1796899;79;21411;-39
2021/03/09 06:31:58;;;;;;;2.30;1.98;;;;;;;-0.74;56.88;99707.62;1797131;79;20988;-39
2021/03/09 06:34:33;;;;;;;3.37;2.10;;;;;;;-0.66;56.75;99707.03;1797062;79;21595;-39
2021/03/09 06:37:15;;;;;;;3.27;2.20;;;;;;;-0.58;56.46;99713.09;1795734;79;21114;-40
2021/03/09 06:39:58;;;;;;;3.85;2.45;;;;;;;-0.54;56.37;99714.14;1789171;79;21206;-39
2021/03/09 06:42:37;;;;;;;3.22;1.90;;;;;;;-0.52;56.45;99721.30;1827420;78;21110;-39
2021/03/09 06:45:16;;;;;;;2.62;1.90;;;;;;;-0.52;56.19;99718.64;1827412;78;21628;-39
2021/03/09 06:47:48;;;;;;;2.10;1.80;;;;;;;-0.48;55.48;99723.67;1825897;78;21126;-40
2021/03/09 06:50:19;;;;;;;4.30;1.80;;;;;;;-0.44;55.42;99723.37;1757029;81;21170;-39
2021/03/09 06:53:01;;;;;;;;;;;;;;;-0.46;56.14;99724.73;1790842;80;23332;-39
2021/03/09 06:55:30;;;;;;;3.58;2.15;;;;;;;-0.37;56.42;99723.59;1750896;82;20169;-39
2021/03/09 06:58:12;;;;;;;4.05;2.12;;;;;;;-0.42;56.99;99723.62;1757067;81;21552;-39
2021/03/09 07:00:40;;;;;;;3.67;2.33;;;;;;;-0.37;56.93;99724.92;1755225;81;21177;-39
2021/03/09 07:03:34;;;;;;;3.17;2.20;;;;;;;-0.36;56.99;99725.98;1756747;81;21157;-39
2021/03/09 07:06:04;;;;;;;3.52;2.65;;;;;;;-0.30;56.69;99731.55;1788019;80;21269;-39
2021/03/09 07:08:33;;;;;;;2.80;1.80;;;;;;;-0.33;57.05;99738.73;1756897;81;21164;-39
2021/03/09 07:11:01;;;;;;;3.12;2.42;;;;;;;-0.26;57.40;99739.77;1787960;80;21452;-39
2021/03/09 07:13:29;;;;;;;3.77;2.62;;;;;;;-0.17;57.61;99739.42;1756843;81;21195;-39
2021/03/09 07:15:58;;;;;;;3.33;2.37;;;;;;;-0.05;57.59;99749.19;1787936;80;21122;-39
2021/03/09 07:18:27;;;;;;;2.77;1.98;;;;;;;0.13;56.79;99752.48;1750216;81;22122;-39
2021/03/09 07:20:58;;;;;;;3.45;2.10;;;;;;;0.19;54.57;99746.03;1756762;81;21167;-39
2021/03/09 07:23:26;;;;;;;4.50;2.20;;;;;;;0.14;53.93;99755.41;1756773;81;21116;-39
2021/03/09 07:25:59;;;;;;;3.12;1.70;;;;;;;0.15;54.05;99748.19;1756762;81;21570;-39
2021/03/09 07:28:32;;;;;;;3.37;2.05;;;;;;;0.20;52.06;99743.61;1756852;81;21160;-39
2021/03/09 07:31:01;;;;;;;3.05;2.00;;;;;;;0.26;50.20;99743.02;1756743;81;21398;-39
2021/03/09 07:33:31;;;;;;;1.98;1.45;;;;;;;0.26;49.01;99743.81;1757028;81;21061;-39
2021/03/09 07:36:03;;;;;;;2.05;1.70;;;;;;;0.25;48.92;99736.09;1727737;81;21042;-39
2021/03/09 07:38:31;;;;;;;2.45;1.65;;;;;;;0.27;49.32;99737.41;1750182;81;21148;-39
2021/03/09 07:40:59;;;;;;;3.33;2.10;;;;;;;0.28;48.56;99737.68;1750832;81;21168;-39
2021/03/09 07:43:27;;;;;;;2.25;1.60;;;;;;;0.29;49.03;99739.24;1732805;82;21200;-39
2021/03/09 07:45:55;;;;;;;4.20;2.35;;;;;;;0.38;48.65;99740.24;1737852;82;21168;-39
2021/03/09 07:48:22;;;;;;;2.72;1.90;;;;;;;0.43;48.54;99738.86;1738053;82;20990;-39
2021/03/09 07:50:49;;;;;;;2.12;1.60;;;;;;;0.50;48.08;99733.16;1737902;82;21101;-39
2021/03/09 07:53:21;;;;;;;3.22;1.60;;;;;;;0.59;47.95;99736.79;1737894;82;21158;-39
2021/03/09 07:56:02;;;;;;;2.05;1.60;;;;;;;0.61;45.72;99729.84;1738010;82;22287;-39
2021/03/09 07:58:37;;;;;;;3.47;1.57;;;;;;;0.60;45.57;99732.25;1804400;78;22741;-39
2021/03/09 08:01:11;;;;;;;2.47;1.70;;;;;;;0.52;45.19;99730.22;1757523;81;20959;-39
2021/03/09 08:03:42;;;;;;;2.95;1.62;;;;;;;0.53;45.47;99731.81;1757559;81;21379;-40
2021/03/09 08:06:13;;;;;;;2.90;1.80;;;;;;;0.58;45.45;99744.53;1757590;81;20983;-39
2021/03/09 08:08:45;;;;;;;2.15;1.62;;;;;;;0.62;45.03;99739.45;1757697;81;21075;-39
2021/03/09 08:11:27;;;;;;;2.20;1.65;;;;;;;0.68;45.42;99742.29;1757620;81;20991;-39
2021/03/09 08:14:15;;;;;;;2.80;1.80;;;;;;;0.77;45.51;99748.61;1757524;81;21261;-39
2021/03/09 08:16:43;;;;;;;3.60;1.98;;;;;;;0.94;45.16;99754.26;1744460;82;21336;-39
2021/03/09 08:19:30;;;;;;;4.07;2.40;;;;;;;0.97;44.09;99750.23;1744607;82;21321;-39
2021/03/09 08:22:03;;;;;;;2.45;1.65;;;;;;;0.91;43.51;99742.83;1744364;82;20978;-39
2021/03/09 08:24:48;;;;;;;7.78;2.00;;;;;;;0.90;43.26;99747.11;1744082;82;21166;-39
2021/03/09 08:27:36;;;;;;;3.47;1.98;;;;;;;1.06;43.16;99745.31;1738174;82;21540;-39
2021/03/09 08:30:30;;;;;;;5.00;2.47;;;;;;;1.31;40.36;99750.82;1769459;81;22122;-39
2021/03/09 08:33:24;;;;;;;4.97;1.77;;;;;;;1.53;39.48;99741.70;1743283;82;21617;-39
2021/03/09 08:35:55;;;;;;;2.42;1.40;;;;;;;1.81;39.00;99737.25;1706667;82;21194;-39
2021/03/09 08:38:24;;;;;;;1.85;1.45;;;;;;;2.14;37.48;99745.50;1747356;81;21420;-39
2021/03/09 08:41:04;;;;;;;2.60;1.30;;;;;;;2.26;35.84;99746.92;1739636;81;21158;-39
2021/03/09 08:43:32;;;;;;;2.15;1.30;;;;;;;2.31;35.36;99742.81;1739465;82;21376;-39
2021/03/09 08:46:02;;;;;;;5.35;2.72;;;;;;;2.32;36.83;99745.20;1739255;82;21221;-39
2021/03/09 08:48:45;;;;;;;6.80;2.60;;;;;;;2.44;36.98;99746.05;1739580;82;21206;-39
2021/03/09 08:51:44;;;;;;;3.45;1.85;;;;;;;2.54;35.31;99742.64;1739448;82;21206;-39
2021/03/09 08:54:32;;;;;;;2.15;1.60;;;;;;;2.54;34.82;99760.03;1739325;82;21135;-39
2021/03/09 08:57:02;;;;;;;2.17;1.52;;;;;;;2.54;35.67;99753.89;1739912;82;21268;-39
2021/03/09 08:59:32;;;;;;;1.77;1.52;;;;;;;2.62;35.68;99747.83;1812640;79;21142;-40
2021/03/09 09:02:14;;;;;;;3.20;2.05;;;;;;;2.74;34.79;99748.15;1814568;79;21056;-39
2021/03/09 09:04:54;;;;;;;4.50;2.58;;;;;;;2.92;35.49;99751.80;1809654;79;21138;-39
2021/03/09 09:07:41;;;;;;;3.22;2.40;;;;;;;3.15;35.49;99755.36;1831374;78;22763;-39
2021/03/09 09:10:21;;;;;;;3.08;2.22;;;;;;;3.20;36.22;99768.62;1735225;82;21037;-39
2021/03/09 09:12:52;;;;;;;3.30;2.33;;;;;;;3.28;35.25;99770.61;1742061;82;21220;-39
2021/03/09 09:15:32;;;;;;;5.40;2.25;;;;;;;3.36;36.41;99768.55;1741910;82;21005;-39
2021/03/09 09:18:05;;;;;;;4.28;2.40;;;;;;;3.56;35.46;99761.40;1735331;82;21001;-39
2021/03/09 09:20:44;;;;;;;5.12;2.62;;;;;;;3.71;35.45;99775.00;1742195;82;21029;-40
2021/03/09 09:23:22;;;;;;;4.53;1.90;;;;;;;3.69;34.40;99782.00;1742414;82;21041;-39
2021/03/09 09:25:52;;;;;;;3.70;2.35;;;;;;;3.43;34.72;99786.36;1741860;82;21393;-39
2021/03/09 09:28:32;;;;;;;2.15;1.67;;;;;;;3.41;34.45;99781.84;1735366;81;21036;-39
2021/03/09 09:31:07;;;;;;;2.30;2.00;;;;;;;3.52;33.94;99788.56;1739628;82;21564;-40
2021/03/09 09:33:36;;;;;;;4.47;1.77;;;;;;;3.68;33.68;99785.00;1712151;83;21169;-40
2021/03/09 09:36:05;;;;;;;2.62;1.80;;;;;;;3.84;32.56;99781.65;1713712;83;21186;-40
2021/03/09 09:38:33;;;;;;;2.08;1.80;;;;;;;4.04;33.22;99774.20;1739487;81;21204;-41
2021/03/09 09:41:02;;;;;;;2.42;1.55;;;;;;;4.23;32.19;99789.02;1713738;83;21620;-40
2021/03/09 09:43:32;;;;;;;1.82;1.30;;;;;;;4.36;31.68;99785.45;1713739;83;20985;-40
2021/03/09 09:46:05;;;;;;;2.83;1.72;;;;;;;4.49;30.66;99781.11;1739299;82;21135;-40
2021/03/09 09:48:38;;;;;;;1.67;1.50;;;;;;;4.51;30.52;99782.13;1738977;82;21638;-40
2021/03/09 09:51:20;;;;;;;2.87;1.70;;;;;;;4.29;30.91;99773.58;1743433;82;21194;-41
2021/03/09 09:53:51;;;;;;;3.72;2.05;;;;;;;4.09;31.00;99780.25;1769934;81;21168;-40
2021/03/09 09:56:23;;;;;;;2.80;1.60;;;;;;;3.85;31.50;99787.27;1743324;82;21158;-40
2021/03/09 09:58:58;;;;;;;3.87;1.70;;;;;;;3.63;31.81;99786.46;1743316;82;21171;-40
2021/03/09 10:01:38;;;;;;;1.87;1.50;;;;;;;3.38;32.58;99796.65;1770232;81;21553;-40
2021/03/09 10:04:10;;;;;;;4.30;2.00;;;;;;;3.28;32.17;99792.84;1743509;82;22067;-40
2021/03/09 10:06:51;;;;;;;3.98;2.10;;;;;;;3.23;32.53;99786.25;1740680;82;21004;-40
2021/03/09 10:09:22;;;;;;;3.87;2.00;;;;;;;3.23;32.78;99788.13;1738083;82;21037;-40
2021/03/09 10:11:58;;;;;;;4.67;2.10;;;;;;;3.25;32.57;99792.08;1738075;82;21170;-40
2021/03/09 10:14:28;;;;;;;4.00;2.10;;;;;;;3.32;33.00;99793.03;1738083;82;21146;-40
2021/03/09 10:16:55;;;;;;;;;;;;;;;3.36;32.97;99796.14;1740727;82;21648;-41
2021/03/09 10:19:23;;;;;;;3.25;2.08;;;;;;;3.34;32.54;99805.59;1718415;82;20595;-40
2021/03/09 10:21:55;;;;;;;2.95;1.98;;;;;;;3.15;32.00;99803.58;1767705;81;21123;-40
2021/03/09 10:24:31;;;;;;;2.83;1.90;;;;;;;3.03;32.58;99802.19;1765458;81;21149;-40
2021/03/09 10:27:00;;;;;;;2.80;1.98;;;;;;;2.96;32.52;99799.65;1767789;81;21130;-41
2021/03/09 10:29:31;;;;;;;2.10;1.55;;;;;;;2.92;33.24;99802.13;1767886;80;22227;-40
2021/03/09 10:32:04;;;;;;;2.50;1.75;;;;;;;2.83;33.39;99796.44;1767763;81;21000;-40
2021/03/09 10:37:37;;;;;;;2.95;1.98;;;;;;;2.63;32.98;99806.44;1814786;78;22728;-39
2021/03/09 10:40:13;;;;;;;4.10;1.70;;;;;;;2.50;33.60;99806.42;1776088;80;20976;-39
2021/03/09 10:42:51;;;;;;;3.60;2.00;;;;;;;2.47;33.95;99804.34;1835705;78;22706;-38
2021/03/09 10:45:26;;;;;;;3.20;1.75;;;;;;;2.40;33.55;99802.05;1808227;79;21000;-38
2021/03/09 10:48:00;;;;;;;3.55;1.85;;;;;;;2.38;33.73;99814.91;1808156;79;21160;-38
2021/03/09 10:50:31;;;;;;;2.22;1.42;;;;;;;2.38;33.55;99810.09;1808129;79;21039;-38
2021/03/09 10:52:58;;;;;;;3.90;1.47;;;;;;;2.33;33.03;99810.19;1808083;79;21019;-38
2021/03/09 10:55:27;;;;;;;2.62;1.90;;;;;;;2.30;33.40;99812.13;1808228;79;21000;-38
2021/03/09 10:57:55;;;;;;;3.08;2.12;;;;;;;2.28;33.54;99808.93;1808241;79;21538;-38
2021/03/09 11:00:24;;;;;;;3.72;2.00;;;;;;;2.32;34.14;99809.41;1808164;79;21401;-38
2021/03/09 11:02:52;;;;;;;3.37;2.20;;;;;;;2.30;33.81;99803.55;1808057;79;20984;-38
2021/03/09 11:05:20;;;;;;;4.37;2.50;;;;;;;2.28;33.64;99804.38;1808202;79;21305;-38
2021/03/09 11:07:48;;;;;;;3.25;2.08;;;;;;;2.27;33.22;99812.17;1808086;79;21114;-38
2021/03/09 11:10:16;;;;;;;2.75;1.42;;;;;;;2.37;33.04;99809.87;1808217;79;21110;-38
2021/03/09 11:12:44;;;;;;;2.45;1.90;;;;;;;2.53;32.10;99811.17;1808156;79;21193;-38
2021/03/09 11:15:14;;;;;;;3.62;1.72;;;;;;;2.69;32.02;99811.70;1808102;79;21205;-38
2021/03/09 11:17:44;;;;;;;3.00;2.08;;;;;;;2.95;32.97;99812.81;1808350;79;21142;-38
2021/03/09 11:20:14;;;;;;;4.30;2.40;;;;;;;3.18;33.04;99813.69;1808315;79;21565;-38
2021/03/09 11:22:42;;;;;;;;;;;;;;;3.29;32.70;99818.52;1810861;79;20976;-38
2021/03/09 11:25:12;;;;;;;2.07;1.50;;;;;;;3.20;31.76;99816.84;1805512;79;21187;-38
2021/03/09 11:27:40;;;;;;;4.53;2.27;;;;;;;2.96;32.57;99813.83;1808155;79;21087;-38
2021/03/09 11:30:11;;;;;;;2.70;1.90;;;;;;;2.55;33.18;99772.34;1808140;79;21158;-38
2021/03/09 11:32:38;;;;;;;2.25;1.60;;;;;;;2.81;33.00;99818.14;1808219;79;21178;-38
2021/03/09 11:35:08;;;;;;;3.58;1.87;;;;;;;2.60;32.77;99804.91;1808057;79;21134;-38
2021/03/09 11:37:36;;;;;;;4.22;2.05;;;;;;;2.55;32.72;99815.70;1808404;79;22057;-38
2021/03/09 11:40:07;;;;;;;2.20;1.65;;;;;;;2.38;33.11;99808.22;1807976;79;21735;-38
2021/03/09 11:42:35;;;;;;;2.65;1.60;;;;;;;2.36;33.76;99806.40;1813152;79;21614;-38
2021/03/09 11:45:05;;;;;;;2.12;1.80;;;;;;;2.53;32.71;99811.17;1814610;79;21055;-38
2021/03/09 11:47:34;;;;;;;3.27;1.55;;;;;;;2.59;32.20;99809.45;1814710;79;21103;-38
2021/03/09 11:50:04;;;;;;;1.72;1.52;;;;;;;2.54;32.30;99800.19;1814650;79;21162;-38
2021/03/09 11:52:32;;;;;;;1.70;1.50;;;;;;;2.08;32.57;99744.00;1814570;79;21158;-38
2021/03/09 11:55:00;;;;;;;1.85;1.47;;;;;;;2.33;31.86;99805.63;1814115;79;21605;-38
2021/03/09 11:57:30;;;;;;;2.62;1.42;;;;;;;2.26;32.48;99803.09;1814218;79;21004;-38
2021/03/09 11:59:59;;;;;;;2.58;1.60;;;;;;;2.33;32.59;99802.95;1814112;79;21114;-38
2021/03/09 12:02:29;;;;;;;1.77;1.50;;;;;;;2.62;32.38;99802.16;1814164;78;21434;-38
2021/03/09 12:04:58;;;;;;;3.20;1.90;;;;;;;3.00;32.94;99813.48;1814200;79;21103;-38